createdAt,value
2023-01-20T00:01:27.275Z,1.82
2023-01-20T00:03:56.932Z,1.76
2023-01-20T00:06:27.836Z,1.61
2023-01-20T00:08:57.840Z,1.92
2023-01-20T00:11:26.605Z,1.89
2023-01-20T00:13:55.981Z,1.78
2023-01-20T00:16:26.349Z,1.70
2023-01-20T00:18:55.335Z,1.83
2023-01-20T00:21:23.977Z,1.79
2023-01-20T00:23:52.106Z,1.79
2023-01-20T00:26:22.443Z,1.76
2023-01-20T00:28:51.732Z,1.77
2023-01-20T00:31:21.408Z,1.86
2023-01-20T00:33:52.708Z,1.98
2023-01-20T00:36:22.122Z,1.81
2023-01-20T00:38:50.789Z,1.91
2023-01-20T00:41:19.849Z,1.75
2023-01-20T00:43:47.969Z,1.82
2023-01-20T00:46:16.811Z,1.75
2023-01-20T00:48:44.828Z,1.99
2023-01-20T00:51:14.413Z,2.02
2023-01-20T00:53:42.887Z,2.27
2023-01-20T00:56:10.998Z,1.93
2023-01-20T00:58:39.004Z,2.00
2023-01-20T01:01:07.082Z,1.98
2023-01-20T01:03:35.120Z,1.99
2023-01-20T01:06:12.371Z,2.05
2023-01-20T01:08:41.832Z,1.91
2023-01-20T01:11:10.787Z,1.84
2023-01-20T01:13:39.348Z,1.76
2023-01-20T01:16:12.373Z,1.88
2023-01-20T01:18:40.570Z,1.82
2023-01-20T01:21:09.803Z,1.98
2023-01-20T01:23:37.828Z,1.88
2023-01-20T01:26:07.622Z,2.05
2023-01-20T01:28:35.892Z,2.04
2023-01-20T01:31:04.686Z,1.97
2023-01-20T01:33:33.662Z,1.98
2023-01-20T01:36:03.399Z,2.04
2023-01-20T01:38:31.658Z,1.99
2023-01-20T01:40:59.777Z,1.99
2023-01-20T01:43:31.154Z,1.94
2023-01-20T01:45:59.847Z,2.08
2023-01-20T01:48:32.447Z,1.82
2023-01-20T01:51:04.363Z,1.91
2023-01-20T01:53:38.350Z,1.95
2023-01-20T01:56:06.765Z,2.06
2023-01-20T01:58:38.657Z,2.05
2023-01-20T02:01:07.125Z,2.05
2023-01-20T02:03:43.403Z,2.05
2023-01-20T02:06:13.002Z,2.03
2023-01-20T02:08:41.391Z,2.03
2023-01-20T02:11:09.464Z,2.04
2023-01-20T02:13:39.135Z,1.88
2023-01-20T02:16:16.176Z,1.99
2023-01-20T02:18:55.662Z,1.94
2023-01-20T02:21:52.220Z,1.90
2023-01-20T02:24:43.198Z,1.80
2023-01-20T02:27:15.720Z,1.76
2023-01-20T02:30:23.565Z,1.84
2023-01-20T02:32:57.685Z,1.86
2023-01-20T02:35:30.741Z,2.03
2023-01-20T02:38:12.069Z,1.95
2023-01-20T02:40:48.699Z,2.02
2023-01-20T02:43:22.470Z,1.93
2023-01-20T02:45:58.260Z,1.92
2023-01-20T02:48:35.846Z,1.91
2023-01-20T02:51:10.377Z,1.94
2023-01-20T02:53:44.959Z,1.98
2023-01-20T02:56:14.128Z,1.97
2023-01-20T02:58:47.454Z,1.92
2023-01-20T03:01:21.504Z,1.90
2023-01-20T03:03:54.359Z,1.91
2023-01-20T03:06:25.471Z,1.94
2023-01-20T03:08:57.082Z,1.82
2023-01-20T03:11:25.088Z,1.94
2023-01-20T03:13:59.467Z,2.11
2023-01-20T03:16:29.439Z,1.94
2023-01-20T03:18:59.173Z,2.10
2023-01-20T03:21:28.127Z,1.98
2023-01-20T03:24:01.152Z,1.90
2023-01-20T03:26:31.079Z,1.82
2023-01-20T03:28:59.500Z,1.79
2023-01-20T03:31:30.762Z,1.89
2023-01-20T03:34:03.777Z,1.76
2023-01-20T03:36:33.834Z,1.89
2023-01-20T03:39:02.355Z,1.87
2023-01-20T03:41:37.683Z,2.02
2023-01-20T03:44:12.772Z,2.03
2023-01-20T03:46:47.238Z,2.11
2023-01-20T03:49:27.362Z,2.01
2023-01-20T03:52:09.768Z,1.90
2023-01-20T03:54:44.057Z,1.84
2023-01-20T03:57:18.001Z,1.77
2023-01-20T03:59:50.146Z,1.89
2023-01-20T04:02:18.455Z,1.91
2023-01-20T04:04:50.737Z,2.15
2023-01-20T04:07:23.396Z,2.00
2023-01-20T04:09:55.597Z,1.90
2023-01-20T04:12:23.861Z,1.79
2023-01-20T04:14:51.936Z,1.92
2023-01-20T04:17:20.207Z,1.70
2023-01-20T04:19:50.015Z,1.93
2023-01-20T04:22:23.252Z,1.89
2023-01-20T04:24:55.477Z,1.84
2023-01-20T04:27:23.457Z,1.88
2023-01-20T04:29:51.432Z,1.94
2023-01-20T04:32:19.484Z,1.87
2023-01-20T04:34:47.314Z,1.93
2023-01-20T04:37:16.783Z,2.09
2023-01-20T04:39:44.827Z,1.90
2023-01-20T04:42:13.479Z,1.92
2023-01-20T04:44:41.493Z,1.90
2023-01-20T04:47:09.664Z,2.03
2023-01-20T04:49:37.791Z,1.87
2023-01-20T04:52:06.247Z,1.97
2023-01-20T04:54:35.959Z,2.06
2023-01-20T04:57:04.073Z,2.07
2023-01-20T04:59:32.287Z,1.95
2023-01-20T05:02:00.475Z,1.90
2023-01-20T05:04:28.571Z,1.94
2023-01-20T05:06:56.595Z,2.29
2023-01-20T05:09:24.591Z,2.06
2023-01-20T05:11:54.077Z,2.07
2023-01-20T05:14:22.306Z,2.16
2023-01-20T05:16:50.321Z,2.13
2023-01-20T05:19:18.273Z,2.16
2023-01-20T05:21:46.299Z,2.28
2023-01-20T05:24:14.408Z,2.12
2023-01-20T05:26:42.425Z,2.05
2023-01-20T05:29:11.835Z,2.09
2023-01-20T05:31:43.288Z,2.14
2023-01-20T05:34:12.075Z,2.05
2023-01-20T05:36:40.099Z,1.98
2023-01-20T05:39:07.981Z,1.98
2023-01-20T05:41:35.920Z,2.11
2023-01-20T05:44:03.913Z,2.34
2023-01-20T05:46:33.477Z,2.46
2023-01-20T05:49:03.117Z,2.12
2023-01-20T05:51:32.161Z,2.01
2023-01-20T05:54:00.273Z,2.04
2023-01-20T05:56:28.272Z,1.99
2023-01-20T05:58:57.137Z,1.82
2023-01-20T06:01:25.944Z,2.15
2023-01-20T06:03:57.051Z,2.01
2023-01-20T06:06:25.752Z,2.04
2023-01-20T06:08:57.956Z,1.94
2023-01-20T06:11:26.504Z,1.88
2023-01-20T06:13:54.533Z,1.95
2023-01-20T06:16:22.963Z,1.81
2023-01-20T06:18:51.119Z,1.95
2023-01-20T06:21:20.587Z,1.92
2023-01-20T06:23:48.714Z,1.98
2023-01-20T06:26:16.831Z,1.99
2023-01-20T06:28:44.874Z,2.03
2023-01-20T06:31:14.798Z,1.75
2023-01-20T06:33:43.420Z,1.85
2023-01-20T06:36:13.834Z,1.84
2023-01-20T06:38:46.780Z,1.86
2023-01-20T06:41:14.899Z,1.90
2023-01-20T06:43:42.795Z,1.86
2023-01-20T06:46:13.112Z,1.92
2023-01-20T06:48:41.478Z,1.83
2023-01-20T06:51:12.081Z,1.76
2023-01-20T06:53:40.183Z,2.00
2023-01-20T06:56:12.581Z,1.99
2023-01-20T06:58:41.295Z,1.94
2023-01-20T07:01:12.786Z,1.99
2023-01-20T07:03:43.484Z,1.72
2023-01-20T07:06:17.558Z,1.81
2023-01-20T07:08:46.394Z,1.90
2023-01-20T07:11:15.798Z,1.85
2023-01-20T07:13:44.220Z,1.82
2023-01-20T07:16:15.547Z,2.00
2023-01-20T07:18:44.246Z,1.82
2023-01-20T07:21:13.429Z,1.94
2023-01-20T07:23:41.481Z,2.02
2023-01-20T07:26:12.124Z,2.10
2023-01-20T07:28:41.610Z,2.00
2023-01-20T07:31:11.056Z,1.95
2023-01-20T07:33:39.247Z,1.73
2023-01-20T07:36:08.687Z,1.94
2023-01-20T07:38:36.799Z,1.89
2023-01-20T07:41:06.834Z,2.06
2023-01-20T07:43:35.192Z,2.16
2023-01-20T07:46:06.306Z,1.94
2023-01-20T07:48:35.180Z,1.94
2023-01-20T07:51:05.837Z,2.05
2023-01-20T07:53:35.953Z,1.98
2023-01-20T07:56:05.625Z,1.84
2023-01-20T07:58:34.064Z,1.78
2023-01-20T08:01:09.579Z,1.92
2023-01-20T08:03:38.640Z,1.98
2023-01-20T08:06:07.847Z,1.92
2023-01-20T08:08:36.846Z,2.05
2023-01-20T08:11:05.927Z,1.98
2023-01-20T08:13:34.342Z,1.96
2023-01-20T08:16:03.473Z,2.04
2023-01-20T08:18:34.161Z,1.90
2023-01-20T08:21:06.362Z,2.00
2023-01-20T08:23:34.935Z,1.95
2023-01-20T08:26:05.117Z,1.87
2023-01-20T08:28:37.173Z,1.95
2023-01-20T08:31:06.970Z,1.96
2023-01-20T08:33:36.901Z,2.01
2023-01-20T08:36:07.513Z,2.09
2023-01-20T08:38:36.826Z,1.85
2023-01-20T08:41:08.854Z,2.04
2023-01-20T08:43:36.924Z,1.83
2023-01-20T08:46:07.702Z,1.84
2023-01-20T08:48:37.908Z,1.87
2023-01-20T08:51:07.782Z,1.87
2023-01-20T08:53:35.957Z,1.84
2023-01-20T08:56:04.788Z,1.81
2023-01-20T08:58:33.439Z,1.72
2023-01-20T09:01:01.685Z,1.74
2023-01-20T09:03:31.639Z,1.79
2023-01-20T09:06:04.661Z,1.80
2023-01-20T09:08:32.813Z,1.86
2023-01-20T09:11:05.310Z,1.94
2023-01-20T09:13:33.488Z,1.96
2023-01-20T09:16:01.605Z,2.13
2023-01-20T09:18:29.739Z,1.98
2023-01-20T09:20:58.643Z,2.03
2023-01-20T09:23:28.113Z,1.93
2023-01-20T09:25:56.432Z,1.91
2023-01-20T09:28:24.456Z,1.90
2023-01-20T09:30:58.197Z,2.06
2023-01-20T09:33:26.375Z,2.06
2023-01-20T09:35:57.713Z,1.90
2023-01-20T09:38:45.731Z,1.92
2023-01-20T09:41:36.444Z,1.88
2023-01-20T09:44:21.067Z,2.13
2023-01-20T09:47:20.549Z,2.06
2023-01-20T09:50:34.310Z,2.18
2023-01-20T09:53:08.078Z,2.31
2023-01-20T09:55:48.067Z,2.15
2023-01-20T09:58:26.093Z,2.29
2023-01-20T10:01:01.954Z,2.29
2023-01-20T10:03:38.068Z,2.31
2023-01-20T10:06:13.040Z,2.30
2023-01-20T10:09:03.923Z,2.44
2023-01-20T10:11:39.643Z,2.58
2023-01-20T10:14:16.653Z,2.48
2023-01-20T10:16:52.885Z,2.41
2023-01-20T10:19:28.166Z,2.52
2023-01-20T10:22:08.250Z,2.61
2023-01-20T10:24:42.037Z,2.60
2023-01-20T10:27:11.501Z,2.61
2023-01-20T10:29:42.955Z,2.55
2023-01-20T10:32:17.900Z,2.62
2023-01-20T10:34:48.218Z,2.82
2023-01-20T10:37:16.531Z,2.75
2023-01-20T10:39:51.049Z,2.63
2023-01-20T10:42:21.789Z,2.63
2023-01-20T10:44:52.327Z,2.78
2023-01-20T10:47:26.686Z,2.86
2023-01-20T10:50:28.345Z,2.76
2023-01-20T10:53:30.421Z,2.65
2023-01-20T10:56:08.927Z,2.59
2023-01-20T10:58:41.726Z,2.61
2023-01-20T11:01:14.474Z,2.63
2023-01-20T11:03:44.618Z,2.82
2023-01-20T11:06:20.619Z,2.82
2023-01-20T11:08:48.968Z,2.83
2023-01-20T11:11:20.623Z,2.71
2023-01-20T11:13:51.826Z,2.90
2023-01-20T11:16:24.660Z,2.79
2023-01-20T11:18:59.011Z,2.78
2023-01-20T11:21:29.017Z,3.01
2023-01-20T11:23:58.094Z,2.93
2023-01-20T11:26:29.096Z,2.82
2023-01-20T11:29:00.528Z,2.86
2023-01-20T11:31:38.587Z,2.85
2023-01-20T11:34:22.819Z,2.85
2023-01-20T11:36:51.641Z,3.08
2023-01-20T11:39:28.284Z,3.01
2023-01-20T11:42:13.349Z,3.02
2023-01-20T11:44:46.779Z,3.77
2023-01-20T11:47:23.800Z,3.29
2023-01-20T11:50:32.985Z,3.06
2023-01-20T11:53:28.543Z,2.99
2023-01-20T11:55:58.435Z,2.85
2023-01-20T11:58:28.800Z,3.00
2023-01-20T12:01:04.180Z,2.96
2023-01-20T12:04:13.875Z,3.12
2023-01-20T12:06:52.519Z,3.18
2023-01-20T12:09:24.440Z,3.29
2023-01-20T12:11:57.659Z,3.05
2023-01-20T12:14:30.675Z,3.14
2023-01-20T12:17:11.281Z,2.94
2023-01-20T12:19:55.149Z,3.19
2023-01-20T12:22:29.178Z,3.06
2023-01-20T12:25:09.171Z,2.90
2023-01-20T12:27:45.216Z,2.87
2023-01-20T12:30:45.706Z,2.99
2023-01-20T12:33:23.951Z,3.06
2023-01-20T12:36:10.135Z,2.85
2023-01-20T12:38:50.575Z,3.21
2023-01-20T12:41:35.926Z,2.92
2023-01-20T12:44:12.178Z,2.83
2023-01-20T12:46:45.547Z,3.01
2023-01-20T12:49:32.246Z,3.17
2023-01-20T12:52:13.502Z,3.01
2023-01-20T12:55:03.864Z,2.79
2023-01-20T12:57:46.623Z,2.95
2023-01-20T13:00:29.894Z,3.05
2023-01-20T13:03:17.776Z,2.98
2023-01-20T13:06:05.893Z,3.01
2023-01-20T13:08:41.676Z,3.21
2023-01-20T13:11:20.969Z,2.92
2023-01-20T13:14:04.237Z,3.09
2023-01-20T13:16:37.953Z,2.94
2023-01-20T13:19:13.749Z,3.06
2023-01-20T13:21:43.553Z,2.95
2023-01-20T13:24:19.709Z,2.94
2023-01-20T13:26:50.017Z,2.93
2023-01-20T13:29:23.701Z,3.04
2023-01-20T13:31:53.674Z,3.25
2023-01-20T13:34:40.958Z,3.32
2023-01-20T13:37:25.546Z,3.25
2023-01-20T13:39:54.515Z,3.01
2023-01-20T13:42:50.212Z,2.84
2023-01-20T13:45:27.776Z,2.97
2023-01-20T13:47:59.281Z,3.27
2023-01-20T13:50:30.671Z,3.03
2023-01-20T13:53:24.681Z,3.03
2023-01-20T13:56:25.850Z,3.12
2023-01-20T13:58:54.555Z,3.11
2023-01-20T14:01:22.603Z,2.97
2023-01-20T14:04:04.089Z,3.16
2023-01-20T14:06:34.305Z,3.10
2023-01-20T14:09:07.886Z,3.15
2023-01-20T14:11:49.971Z,3.16
2023-01-20T14:14:20.588Z,2.90
2023-01-20T14:33:44.840Z,3.05
2023-01-20T14:36:16.635Z,2.96
2023-01-20T14:38:56.890Z,3.12
2023-01-20T14:41:32.820Z,2.98
2023-01-20T14:44:01.848Z,3.20
2023-01-20T14:46:32.814Z,3.42
2023-01-20T14:49:33.985Z,3.50
2023-01-20T14:52:02.778Z,3.32
2023-01-20T14:54:35.250Z,3.15
2023-01-20T14:57:17.787Z,3.05
2023-01-20T14:59:45.955Z,3.01
2023-01-20T15:02:28.134Z,3.01
2023-01-20T15:04:57.784Z,3.05
2023-01-20T15:07:26.688Z,3.07
2023-01-20T15:10:01.729Z,2.94
2023-01-20T15:12:35.929Z,3.03
2023-01-20T15:15:14.658Z,2.89
2023-01-20T15:18:22.289Z,3.10
2023-01-20T15:21:03.842Z,3.20
2023-01-20T15:23:41.312Z,3.15
2023-01-20T15:26:11.407Z,3.15
2023-01-20T15:28:44.098Z,3.00
2023-01-20T15:31:15.390Z,3.05
2023-01-20T15:33:44.179Z,3.00
2023-01-20T15:36:22.917Z,2.99
2023-01-20T15:38:51.705Z,2.87
2023-01-20T15:41:20.251Z,2.86
2023-01-20T15:43:49.156Z,2.73
2023-01-20T15:46:18.439Z,2.81
2023-01-20T15:48:47.596Z,2.66
2023-01-20T15:51:19.992Z,2.70
2023-01-20T15:53:48.324Z,2.79
2023-01-20T15:56:20.752Z,3.16
2023-01-20T15:58:49.009Z,2.61
2023-01-20T16:01:19.267Z,2.83
2023-01-20T16:03:47.697Z,2.64
2023-01-20T16:06:18.763Z,2.73
2023-01-20T16:08:48.947Z,2.69
2023-01-20T16:11:18.524Z,2.90
2023-01-20T16:13:47.088Z,2.73
2023-01-20T16:16:17.086Z,2.82
2023-01-20T16:18:45.682Z,2.77
2023-01-20T16:21:15.299Z,2.69
2023-01-20T16:23:45.409Z,2.71
2023-01-20T16:26:22.327Z,2.66
2023-01-20T16:28:50.683Z,2.60
2023-01-20T16:31:18.819Z,2.67
2023-01-20T16:33:47.070Z,2.61
2023-01-20T16:36:17.422Z,2.63
2023-01-20T16:38:48.797Z,2.46
2023-01-20T16:41:21.368Z,2.46
2023-01-20T16:43:50.121Z,2.41
2023-01-20T16:46:20.935Z,2.45
2023-01-20T16:48:49.025Z,2.33
2023-01-20T16:51:19.581Z,2.49
2023-01-20T16:53:48.983Z,2.51
2023-01-20T16:56:17.924Z,2.45
2023-01-20T16:58:48.279Z,2.45
2023-01-20T17:01:20.859Z,2.27
2023-01-20T17:03:49.430Z,2.57
2023-01-20T17:06:19.162Z,2.34
2023-01-20T17:08:50.128Z,2.17
2023-01-20T17:11:18.524Z,2.14
2023-01-20T17:13:46.876Z,2.13
2023-01-20T17:16:15.142Z,2.22
2023-01-20T17:18:45.630Z,2.13
2023-01-20T17:21:14.896Z,2.17
2023-01-20T17:23:43.127Z,2.20
2023-01-20T17:26:12.438Z,1.93
2023-01-20T17:28:40.367Z,2.00
2023-01-20T17:31:08.668Z,2.03
2023-01-20T17:33:36.581Z,1.99
2023-01-20T17:36:06.644Z,1.89
2023-01-20T17:38:35.768Z,2.07
2023-01-20T17:41:05.267Z,2.04
2023-01-20T17:43:36.203Z,2.18
2023-01-20T17:46:13.420Z,2.04
2023-01-20T17:48:41.354Z,2.01
2023-01-20T17:51:13.565Z,2.09
2023-01-20T17:53:41.920Z,2.05
2023-01-20T17:56:13.461Z,1.85
2023-01-20T17:58:46.403Z,1.78
2023-01-20T18:01:16.212Z,1.68
2023-01-20T18:03:44.925Z,1.79
2023-01-20T18:06:14.245Z,1.75
2023-01-20T18:08:42.982Z,1.88
2023-01-20T18:11:15.061Z,1.77
2023-01-20T18:13:47.333Z,1.71
2023-01-20T18:16:17.647Z,1.83
2023-01-20T18:18:46.668Z,1.82
2023-01-20T18:21:16.678Z,1.77
2023-01-20T18:23:46.107Z,2.09
2023-01-20T18:26:15.966Z,2.01
2023-01-20T18:28:47.936Z,1.86
2023-01-20T18:31:17.699Z,1.71
2023-01-20T18:33:48.094Z,1.63
2023-01-20T18:36:18.551Z,1.52
2023-01-20T18:38:50.848Z,1.45
2023-01-20T18:41:21.534Z,1.37
2023-01-20T18:43:51.812Z,1.34
2023-01-20T18:46:20.469Z,1.29
2023-01-20T18:48:49.050Z,1.21
2023-01-20T18:51:20.330Z,1.25
2023-01-20T18:53:54.457Z,1.16
2023-01-20T18:56:22.920Z,1.14
2023-01-20T18:58:52.885Z,1.03
2023-01-20T19:01:22.481Z,0.97
2023-01-20T19:03:51.381Z,1.02
2023-01-20T19:06:21.711Z,0.97
2023-01-20T19:08:50.183Z,0.85
2023-01-20T19:11:20.827Z,0.83
2023-01-20T19:13:50.077Z,0.83
2023-01-20T19:16:20.960Z,0.79
2023-01-20T19:18:53.074Z,0.74
2023-01-20T19:21:22.132Z,0.75
2023-01-20T19:23:53.034Z,0.76
2023-01-20T19:26:22.761Z,0.75
2023-01-20T19:28:57.505Z,0.74
2023-01-20T19:31:27.664Z,0.72
2023-01-20T19:33:55.836Z,0.70
2023-01-20T19:36:24.395Z,0.63
2023-01-20T19:38:52.816Z,0.65
2023-01-20T19:41:22.828Z,0.59
2023-01-20T19:43:57.174Z,0.60
2023-01-20T19:46:28.627Z,0.52
2023-01-20T19:48:58.352Z,0.50
2023-01-20T19:51:27.839Z,0.46
2023-01-20T19:53:58.101Z,0.49
2023-01-20T19:56:28.101Z,0.52
2023-01-20T19:58:56.528Z,0.45
2023-01-20T20:01:31.315Z,0.49
2023-01-20T20:04:00.208Z,0.47
2023-01-20T20:06:30.860Z,0.50
2023-01-20T20:09:00.363Z,0.51
2023-01-20T20:11:28.870Z,0.41
2023-01-20T20:13:57.687Z,0.42
2023-01-20T20:16:28.989Z,0.37
2023-01-20T20:18:58.051Z,0.43
2023-01-20T20:21:27.241Z,0.42
2023-01-20T20:23:57.577Z,0.39
2023-01-20T20:26:28.699Z,0.44
2023-01-20T20:28:56.661Z,0.53
2023-01-20T20:31:28.959Z,0.44
2023-01-20T20:33:59.990Z,0.46
2023-01-20T20:36:31.083Z,0.41
2023-01-20T20:39:00.262Z,0.47
2023-01-20T20:41:30.480Z,0.62
2023-01-20T20:43:59.326Z,0.55
2023-01-20T20:46:27.532Z,0.60
2023-01-20T20:48:55.962Z,0.61
2023-01-20T20:51:25.246Z,0.60
2023-01-20T20:53:55.215Z,0.57
2023-01-20T20:56:24.549Z,0.49
2023-01-20T20:59:01.548Z,0.52
2023-01-20T21:01:32.897Z,0.45
2023-01-20T21:04:01.234Z,0.40
2023-01-20T21:06:31.539Z,0.45
2023-01-20T21:08:59.713Z,0.64
2023-01-20T21:11:27.991Z,0.50
2023-01-20T21:13:56.066Z,0.78
2023-01-20T21:16:25.249Z,0.70
2023-01-20T21:18:56.046Z,0.60
2023-01-20T21:21:25.675Z,0.61
2023-01-20T21:23:57.078Z,0.61
2023-01-20T21:26:29.646Z,0.56
2023-01-20T21:29:00.285Z,0.53
2023-01-20T21:31:28.308Z,0.67
2023-01-20T21:33:58.427Z,0.42
2023-01-20T21:36:27.347Z,0.52
2023-01-20T21:38:56.734Z,0.46
2023-01-20T21:41:24.591Z,0.41
2023-01-20T21:44:09.795Z,0.45
2023-01-20T21:46:40.094Z,0.41
2023-01-20T21:49:25.587Z,0.40
2023-01-20T21:52:10.875Z,0.36
2023-01-20T21:54:41.356Z,0.39
2023-01-20T21:57:09.981Z,0.30
2023-01-20T21:59:38.399Z,0.39
2023-01-20T22:02:06.668Z,0.32
2023-01-20T22:04:35.250Z,0.37
2023-01-20T22:07:03.129Z,0.39
2023-01-20T22:09:31.018Z,0.48
2023-01-20T22:12:00.477Z,0.33
2023-01-20T22:14:28.388Z,0.25
2023-01-20T22:16:56.443Z,0.30
2023-01-20T22:19:24.393Z,0.25
2023-01-20T22:21:52.861Z,0.24
2023-01-20T22:24:20.779Z,0.38
2023-01-20T22:26:49.200Z,0.27
2023-01-20T22:29:19.147Z,0.19
2023-01-20T22:31:47.452Z,0.07
2023-01-20T22:34:15.518Z,0.17
2023-01-20T22:36:44.983Z,0.18
2023-01-20T22:39:13.711Z,0.16
2023-01-20T22:41:42.394Z,0.11
2023-01-20T22:44:10.496Z,0.17
2023-01-20T22:46:39.756Z,0.24
2023-01-20T22:49:07.698Z,0.37
2023-01-20T22:51:35.572Z,0.31
2023-01-20T22:54:03.499Z,0.28
2023-01-20T22:56:33.974Z,0.26
2023-01-20T22:59:02.088Z,0.28
2023-01-20T23:01:32.274Z,0.37
2023-01-20T23:04:03.974Z,0.28
2023-01-20T23:06:34.009Z,0.24
2023-01-20T23:09:02.609Z,0.40
2023-01-20T23:11:31.108Z,0.31
2023-01-20T23:13:59.065Z,0.25
2023-01-20T23:16:27.084Z,0.18
2023-01-20T23:18:55.026Z,0.24
2023-01-20T23:21:24.713Z,0.33
2023-01-20T23:23:54.922Z,0.11
2023-01-20T23:26:28.643Z,0.33
2023-01-20T23:28:57.681Z,0.63
2023-01-20T23:31:28.494Z,0.60
2023-01-20T23:33:56.479Z,0.42
2023-01-20T23:36:27.318Z,0.44
2023-01-20T23:38:56.593Z,0.26
2023-01-20T23:41:25.217Z,0.20
2023-01-20T23:43:53.506Z,0.18
2023-01-20T23:46:21.876Z,0.10
2023-01-20T23:48:49.991Z,0.07
2023-01-20T23:51:18.018Z,-0.01
2023-01-20T23:53:47.595Z,0.05
2023-01-20T23:56:17.485Z,0.01
2023-01-20T23:58:46.382Z,-0.09
